sensor_id;sensor_type;location;lat;lon;timestamp;temperature;humidity
69503;SHT31;56704;54.242;12.442;2024-01-15T00:00:11;1.15;92.37
69503;SHT31;56704;54.242;12.442;2024-01-15T00:02:37;1.11;92.29
69503;SHT31;56704;54.242;12.442;2024-01-15T00:05:04;1.09;91.89
69503;SHT31;56704;54.242;12.442;2024-01-15T00:07:31;1.06;91.83
69503;SHT31;56704;54.242;12.442;2024-01-15T00:09:57;1.05;91.66
69503;SHT31;56704;54.242;12.442;2024-01-15T00:12:24;0.99;91.81
69503;SHT31;56704;54.242;12.442;2024-01-15T00:14:52;1.01;91.56
69503;SHT31;56704;54.242;12.442;2024-01-15T00:17:19;1.08;91.31
69503;SHT31;56704;54.242;12.442;2024-01-15T00:19:46;1.05;91.69
69503;SHT31;56704;54.242;12.442;2024-01-15T00:22:12;1.04;91.85
69503;SHT31;56704;54.242;12.442;2024-01-15T00:24:39;1.01;92.09
69503;SHT31;56704;54.242;12.442;2024-01-15T00:27:05;1.04;91.99
69503;SHT31;56704;54.242;12.442;2024-01-15T00:29:32;1.02;91.60
69503;SHT31;56704;54.242;12.442;2024-01-15T00:32:00;1.01;91.72
69503;SHT31;56704;54.242;12.442;2024-01-15T00:34:26;1.05;91.71
69503;SHT31;56704;54.242;12.442;2024-01-15T00:36:54;1.11;91.06
69503;SHT31;56704;54.242;12.442;2024-01-15T00:39:20;1.12;91.00
69503;SHT31;56704;54.242;12.442;2024-01-15T00:41:47;1.15;90.81
69503;SHT31;56704;54.242;12.442;2024-01-15T00:44:13;1.16;90.60
69503;SHT31;56704;54.242;12.442;2024-01-15T00:46:44;1.21;90.52
69503;SHT31;56704;54.242;12.442;2024-01-15T00:49:12;1.21;90.42
69503;SHT31;56704;54.242;12.442;2024-01-15T00:51:39;1.23;90.47
69503;SHT31;56704;54.242;12.442;2024-01-15T00:54:06;1.23;90.14
69503;SHT31;56704;54.242;12.442;2024-01-15T00:56:32;1.25;90.17
69503;SHT31;56704;54.242;12.442;2024-01-15T00:59:00;1.38;89.25
69503;SHT31;56704;54.242;12.442;2024-01-15T01:01:26;1.38;89.37
69503;SHT31;56704;54.242;12.442;2024-01-15T01:03:53;1.42;89.07
69503;SHT31;56704;54.242;12.442;2024-01-15T01:06:21;1.45;88.62
69503;SHT31;56704;54.242;12.442;2024-01-15T01:08:47;1.45;88.89
69503;SHT31;56704;54.242;12.442;2024-01-15T01:11:14;1.45;89.03
69503;SHT31;56704;54.242;12.442;2024-01-15T01:13:41;1.45;89.32
69503;SHT31;56704;54.242;12.442;2024-01-15T01:16:07;1.49;88.80
69503;SHT31;56704;54.242;12.442;2024-01-15T01:18:34;1.43;89.53
69503;SHT31;56704;54.242;12.442;2024-01-15T01:21:01;1.38;89.59
69503;SHT31;56704;54.242;12.442;2024-01-15T01:23:29;1.28;90.11
69503;SHT31;56704;54.242;12.442;2024-01-15T01:25:56;1.28;90.38
69503;SHT31;56704;54.242;12.442;2024-01-15T01:28:22;1.31;89.84
69503;SHT31;56704;54.242;12.442;2024-01-15T01:30:49;1.35;89.39
69503;SHT31;56704;54.242;12.442;2024-01-15T01:33:15;1.49;88.40
69503;SHT31;56704;54.242;12.442;2024-01-15T01:35:42;1.49;88.36
69503;SHT31;56704;54.242;12.442;2024-01-15T01:38:08;1.52;88.22
69503;SHT31;56704;54.242;12.442;2024-01-15T01:40:36;1.52;88.48
69503;SHT31;56704;54.242;12.442;2024-01-15T01:43:03;1.47;89.07
69503;SHT31;56704;54.242;12.442;2024-01-15T01:45:30;1.57;88.52
69503;SHT31;56704;54.242;12.442;2024-01-15T01:47:57;1.62;88.52
69503;SHT31;56704;54.242;12.442;2024-01-15T01:50:24;1.64;88.31
69503;SHT31;56704;54.242;12.442;2024-01-15T01:52:50;1.70;88.14
69503;SHT31;56704;54.242;12.442;2024-01-15T01:55:18;1.71;88.27
69503;SHT31;56704;54.242;12.442;2024-01-15T01:57:46;1.78;88.47
69503;SHT31;56704;54.242;12.442;2024-01-15T02:00:14;1.76;88.21
69503;SHT31;56704;54.242;12.442;2024-01-15T02:02:40;1.74;88.86
69503;SHT31;56704;54.242;12.442;2024-01-15T02:05:08;1.70;89.39
69503;SHT31;56704;54.242;12.442;2024-01-15T02:07:35;1.64;89.46
69503;SHT31;56704;54.242;12.442;2024-01-15T02:10:02;1.66;89.36
69503;SHT31;56704;54.242;12.442;2024-01-15T02:12:29;1.59;89.76
69503;SHT31;56704;54.242;12.442;2024-01-15T02:14:57;1.50;90.21
69503;SHT31;56704;54.242;12.442;2024-01-15T02:17:24;1.56;89.96
69503;SHT31;56704;54.242;12.442;2024-01-15T02:19:50;1.59;90.26
69503;SHT31;56704;54.242;12.442;2024-01-15T02:22:17;1.59;90.43
69503;SHT31;56704;54.242;12.442;2024-01-15T02:24:45;1.62;90.58
69503;SHT31;56704;54.242;12.442;2024-01-15T02:27:11;1.60;90.57
69503;SHT31;56704;54.242;12.442;2024-01-15T02:29:38;1.70;90.16
69503;SHT31;56704;54.242;12.442;2024-01-15T02:32:05;1.76;89.69
69503;SHT31;56704;54.242;12.442;2024-01-15T02:34:32;1.83;89.04
69503;SHT31;56704;54.242;12.442;2024-01-15T02:36:59;1.94;88.48
69503;SHT31;56704;54.242;12.442;2024-01-15T02:39:26;1.96;89.12
69503;SHT31;56704;54.242;12.442;2024-01-15T02:41:55;2.03;88.84
69503;SHT31;56704;54.242;12.442;2024-01-15T02:44:23;2.07;89.05
69503;SHT31;56704;54.242;12.442;2024-01-15T02:46:49;2.07;88.94
69503;SHT31;56704;54.242;12.442;2024-01-15T02:49:16;2.07;89.29
69503;SHT31;56704;54.242;12.442;2024-01-15T02:51:42;2.08;89.52
69503;SHT31;56704;54.242;12.442;2024-01-15T02:54:09;2.06;89.86
69503;SHT31;56704;54.242;12.442;2024-01-15T02:56:36;2.08;89.63
69503;SHT31;56704;54.242;12.442;2024-01-15T02:59:04;2.11;89.01
69503;SHT31;56704;54.242;12.442;2024-01-15T03:01:30;2.11;89.13
69503;SHT31;56704;54.242;12.442;2024-01-15T03:03:57;2.13;88.40
69503;SHT31;56704;54.242;12.442;2024-01-15T03:06:23;2.15;87.86
69503;SHT31;56704;54.242;12.442;2024-01-15T03:08:50;2.13;88.05
69503;SHT31;56704;54.242;12.442;2024-01-15T03:11:16;2.14;87.70
69503;SHT31;56704;54.242;12.442;2024-01-15T03:13:43;2.13;87.74
69503;SHT31;56704;54.242;12.442;2024-01-15T03:16:11;2.18;86.70
69503;SHT31;56704;54.242;12.442;2024-01-15T03:18:38;2.22;86.34
69503;SHT31;56704;54.242;12.442;2024-01-15T03:21:04;2.21;86.03
69503;SHT31;56704;54.242;12.442;2024-01-15T03:23:31;2.14;86.72
69503;SHT31;56704;54.242;12.442;2024-01-15T03:25:58;2.08;86.68
69503;SHT31;56704;54.242;12.442;2024-01-15T03:28:24;2.04;87.20
69503;SHT31;56704;54.242;12.442;2024-01-15T03:30:51;1.97;87.31
69503;SHT31;56704;54.242;12.442;2024-01-15T03:33:19;1.94;87.00
69503;SHT31;56704;54.242;12.442;2024-01-15T03:35:45;2.04;86.10
69503;SHT31;56704;54.242;12.442;2024-01-15T03:38:12;2.10;86.05
69503;SHT31;56704;54.242;12.442;2024-01-15T03:40:38;2.11;86.19
69503;SHT31;56704;54.242;12.442;2024-01-15T03:43:05;2.06;86.85
69503;SHT31;56704;54.242;12.442;2024-01-15T03:45:32;1.98;87.37
69503;SHT31;56704;54.242;12.442;2024-01-15T03:47:58;1.86;87.24
69503;SHT31;56704;54.242;12.442;2024-01-15T03:50:26;1.67;87.79
69503;SHT31;56704;54.242;12.442;2024-01-15T03:52:53;1.67;88.20
69503;SHT31;56704;54.242;12.442;2024-01-15T03:55:19;1.71;86.55
69503;SHT31;56704;54.242;12.442;2024-01-15T03:57:46;1.76;85.32
69503;SHT31;56704;54.242;12.442;2024-01-15T04:00:14;1.77;84.98
69503;SHT31;56704;54.242;12.442;2024-01-15T04:02:42;1.76;84.46
69503;SHT31;56704;54.242;12.442;2024-01-15T04:05:09;1.78;84.02
69503;SHT31;56704;54.242;12.442;2024-01-15T04:07:37;1.80;84.29
69503;SHT31;56704;54.242;12.442;2024-01-15T04:10:04;1.83;84.61
69503;SHT31;56704;54.242;12.442;2024-01-15T04:12:31;1.83;84.62
69503;SHT31;56704;54.242;12.442;2024-01-15T04:14:58;1.87;84.80
69503;SHT31;56704;54.242;12.442;2024-01-15T04:17:24;1.88;84.29
69503;SHT31;56704;54.242;12.442;2024-01-15T04:19:51;1.87;84.75
69503;SHT31;56704;54.242;12.442;2024-01-15T04:22:17;1.94;82.55
69503;SHT31;56704;54.242;12.442;2024-01-15T04:24:45;1.94;83.01
69503;SHT31;56704;54.242;12.442;2024-01-15T04:27:12;2.03;81.77
69503;SHT31;56704;54.242;12.442;2024-01-15T04:29:39;2.03;82.53
69503;SHT31;56704;54.242;12.442;2024-01-15T04:32:05;1.94;83.05
69503;SHT31;56704;54.242;12.442;2024-01-15T04:34:32;1.90;83.33
69503;SHT31;56704;54.242;12.442;2024-01-15T04:36:59;1.94;82.37
69503;SHT31;56704;54.242;12.442;2024-01-15T04:39:25;1.88;83.54
69503;SHT31;56704;54.242;12.442;2024-01-15T04:41:53;1.84;83.60
69503;SHT31;56704;54.242;12.442;2024-01-15T04:44:20;1.87;81.65
69503;SHT31;56704;54.242;12.442;2024-01-15T04:46:46;1.90;82.49
69503;SHT31;56704;54.242;12.442;2024-01-15T04:49:13;1.87;82.88
69503;SHT31;56704;54.242;12.442;2024-01-15T04:51:40;1.87;82.27
69503;SHT31;56704;54.242;12.442;2024-01-15T04:54:06;1.90;82.88
69503;SHT31;56704;54.242;12.442;2024-01-15T04:56:33;1.93;82.59
69503;SHT31;56704;54.242;12.442;2024-01-15T04:59:01;1.93;83.11
69503;SHT31;56704;54.242;12.442;2024-01-15T05:01:31;1.96;83.64
69503;SHT31;56704;54.242;12.442;2024-01-15T05:03:57;1.94;82.09
69503;SHT31;56704;54.242;12.442;2024-01-15T05:06:24;1.97;79.64
69503;SHT31;56704;54.242;12.442;2024-01-15T05:08:51;1.97;80.66
69503;SHT31;56704;54.242;12.442;2024-01-15T05:11:18;1.98;81.12
69503;SHT31;56704;54.242;12.442;2024-01-15T05:13:44;1.96;80.08
69503;SHT31;56704;54.242;12.442;2024-01-15T05:16:12;2.00;79.25
69503;SHT31;56704;54.242;12.442;2024-01-15T05:18:39;1.97;80.29
69503;SHT31;56704;54.242;12.442;2024-01-15T05:21:05;1.94;80.48
69503;SHT31;56704;54.242;12.442;2024-01-15T05:23:32;1.98;80.30
69503;SHT31;56704;54.242;12.442;2024-01-15T05:25:58;2.06;80.86
69503;SHT31;56704;54.242;12.442;2024-01-15T05:28:25;2.03;81.08
69503;SHT31;56704;54.242;12.442;2024-01-15T05:30:52;2.03;81.90
69503;SHT31;56704;54.242;12.442;2024-01-15T05:33:22;2.00;81.42
69503;SHT31;56704;54.242;12.442;2024-01-15T05:35:48;2.04;81.02
69503;SHT31;56704;54.242;12.442;2024-01-15T05:38:15;2.06;80.61
69503;SHT31;56704;54.242;12.442;2024-01-15T05:40:42;2.03;81.02
69503;SHT31;56704;54.242;12.442;2024-01-15T05:43:08;2.03;81.57
69503;SHT31;56704;54.242;12.442;2024-01-15T05:45:35;2.00;81.98
69503;SHT31;56704;54.242;12.442;2024-01-15T05:48:02;2.04;80.46
69503;SHT31;56704;54.242;12.442;2024-01-15T05:50:30;1.97;81.68
69503;SHT31;56704;54.242;12.442;2024-01-15T05:52:57;1.91;82.47
69503;SHT31;56704;54.242;12.442;2024-01-15T05:55:23;1.80;82.76
69503;SHT31;56704;54.242;12.442;2024-01-15T05:57:50;1.68;81.82
69503;SHT31;56704;54.242;12.442;2024-01-15T06:00:17;1.64;82.00
69503;SHT31;56704;54.242;12.442;2024-01-15T06:02:43;1.67;81.16
69503;SHT31;56704;54.242;12.442;2024-01-15T06:05:10;1.73;81.97
69503;SHT31;56704;54.242;12.442;2024-01-15T06:07:38;1.73;81.43
69503;SHT31;56704;54.242;12.442;2024-01-15T06:10:06;1.73;83.39
69503;SHT31;56704;54.242;12.442;2024-01-15T06:12:33;1.73;81.70
69503;SHT31;56704;54.242;12.442;2024-01-15T06:14:59;1.76;82.63
69503;SHT31;56704;54.242;12.442;2024-01-15T06:17:28;1.87;80.44
69503;SHT31;56704;54.242;12.442;2024-01-15T06:19:54;1.86;80.48
69503;SHT31;56704;54.242;12.442;2024-01-15T06:22:22;1.87;79.45
69503;SHT31;56704;54.242;12.442;2024-01-15T06:24:50;1.88;78.64
69503;SHT31;56704;54.242;12.442;2024-01-15T06:27:16;1.87;80.08
69503;SHT31;56704;54.242;12.442;2024-01-15T06:29:45;1.88;78.71
69503;SHT31;56704;54.242;12.442;2024-01-15T06:32:12;1.90;77.87
69503;SHT31;56704;54.242;12.442;2024-01-15T06:34:38;1.93;78.50
69503;SHT31;56704;54.242;12.442;2024-01-15T06:37:05;1.86;79.37
69503;SHT31;56704;54.242;12.442;2024-01-15T06:39:32;1.84;80.06
69503;SHT31;56704;54.242;12.442;2024-01-15T06:42:00;1.81;80.62
69503;SHT31;56704;54.242;12.442;2024-01-15T06:44:27;1.81;82.04
69503;SHT31;56704;54.242;12.442;2024-01-15T06:46:54;1.71;82.12
69503;SHT31;56704;54.242;12.442;2024-01-15T06:49:22;1.64;83.97
69503;SHT31;56704;54.242;12.442;2024-01-15T06:51:49;1.53;84.54
69503;SHT31;56704;54.242;12.442;2024-01-15T06:54:16;1.52;85.23
69503;SHT31;56704;54.242;12.442;2024-01-15T06:56:42;1.46;85.49
69503;SHT31;56704;54.242;12.442;2024-01-15T06:59:10;1.39;83.75
69503;SHT31;56704;54.242;12.442;2024-01-15T07:01:37;1.39;82.97
69503;SHT31;56704;54.242;12.442;2024-01-15T07:04:03;1.33;79.95
69503;SHT31;56704;54.242;12.442;2024-01-15T07:06:30;1.29;81.15
69503;SHT31;56704;54.242;12.442;2024-01-15T07:08:58;1.22;79.81
69503;SHT31;56704;54.242;12.442;2024-01-15T07:11:25;1.25;80.38
69503;SHT31;56704;54.242;12.442;2024-01-15T07:13:52;1.19;80.24
69503;SHT31;56704;54.242;12.442;2024-01-15T07:16:20;1.18;79.27
69503;SHT31;56704;54.242;12.442;2024-01-15T07:18:46;1.16;78.42
69503;SHT31;56704;54.242;12.442;2024-01-15T07:21:16;1.21;78.77
69503;SHT31;56704;54.242;12.442;2024-01-15T07:23:42;1.16;79.62
69503;SHT31;56704;54.242;12.442;2024-01-15T07:26:09;1.18;80.09
69503;SHT31;56704;54.242;12.442;2024-01-15T07:28:36;1.15;78.84
69503;SHT31;56704;54.242;12.442;2024-01-15T07:31:03;1.18;79.47
69503;SHT31;56704;54.242;12.442;2024-01-15T07:33:33;1.15;80.79
69503;SHT31;56704;54.242;12.442;2024-01-15T07:35:59;1.15;79.73
69503;SHT31;56704;54.242;12.442;2024-01-15T07:38:28;1.09;80.05
69503;SHT31;56704;54.242;12.442;2024-01-15T07:40:54;1.08;79.08
69503;SHT31;56704;54.242;12.442;2024-01-15T07:43:21;1.05;79.83
69503;SHT31;56704;54.242;12.442;2024-01-15T07:45:48;1.04;81.02
69503;SHT31;56704;54.242;12.442;2024-01-15T07:48:14;1.02;80.81
69503;SHT31;56704;54.242;12.442;2024-01-15T07:50:42;1.02;80.71
69503;SHT31;56704;54.242;12.442;2024-01-15T07:53:09;1.01;82.16
69503;SHT31;56704;54.242;12.442;2024-01-15T07:55:36;1.05;81.44
69503;SHT31;56704;54.242;12.442;2024-01-15T07:58:03;1.05;81.80
69503;SHT31;56704;54.242;12.442;2024-01-15T08:00:29;1.06;80.91
69503;SHT31;56704;54.242;12.442;2024-01-15T08:02:56;1.09;82.01
69503;SHT31;56704;54.242;12.442;2024-01-15T08:05:23;1.08;80.84
69503;SHT31;56704;54.242;12.442;2024-01-15T08:07:51;1.09;81.27
69503;SHT31;56704;54.242;12.442;2024-01-15T08:10:17;1.01;80.53
69503;SHT31;56704;54.242;12.442;2024-01-15T08:12:44;0.99;80.72
69503;SHT31;56704;54.242;12.442;2024-01-15T08:15:11;0.99;81.51
69503;SHT31;56704;54.242;12.442;2024-01-15T08:17:37;0.98;81.41
69503;SHT31;56704;54.242;12.442;2024-01-15T08:20:04;0.92;81.64
69503;SHT31;56704;54.242;12.442;2024-01-15T08:22:31;0.94;79.49
69503;SHT31;56704;54.242;12.442;2024-01-15T08:24:59;0.94;81.05
69503;SHT31;56704;54.242;12.442;2024-01-15T08:27:26;0.94;80.75
69503;SHT31;56704;54.242;12.442;2024-01-15T08:29:53;0.94;81.43
69503;SHT31;56704;54.242;12.442;2024-01-15T08:32:19;0.92;80.09
69503;SHT31;56704;54.242;12.442;2024-01-15T08:34:46;0.92;80.54
69503;SHT31;56704;54.242;12.442;2024-01-15T08:37:14;0.94;80.80
69503;SHT31;56704;54.242;12.442;2024-01-15T08:39:41;0.89;80.90
69503;SHT31;56704;54.242;12.442;2024-01-15T08:42:08;0.88;79.36
69503;SHT31;56704;54.242;12.442;2024-01-15T08:44:36;0.87;80.78
69503;SHT31;56704;54.242;12.442;2024-01-15T08:47:04;0.84;81.41
69503;SHT31;56704;54.242;12.442;2024-01-15T08:49:31;0.85;81.77
69503;SHT31;56704;54.242;12.442;2024-01-15T08:51:58;0.81;82.06
69503;SHT31;56704;54.242;12.442;2024-01-15T08:54:25;0.77;81.20
69503;SHT31;56704;54.242;12.442;2024-01-15T08:56:51;0.75;81.20
69503;SHT31;56704;54.242;12.442;2024-01-15T08:59:19;0.80;81.34
69503;SHT31;56704;54.242;12.442;2024-01-15T09:01:50;0.77;80.66
69503;SHT31;56704;54.242;12.442;2024-01-15T09:04:16;0.80;82.40
69503;SHT31;56704;54.242;12.442;2024-01-15T09:06:44;0.75;81.10
69503;SHT31;56704;54.242;12.442;2024-01-15T09:09:12;0.75;80.59
69503;SHT31;56704;54.242;12.442;2024-01-15T09:11:39;0.74;81.88
69503;SHT31;56704;54.242;12.442;2024-01-15T09:14:05;0.70;80.61
69503;SHT31;56704;54.242;12.442;2024-01-15T09:16:33;0.68;81.47
69503;SHT31;56704;54.242;12.442;2024-01-15T09:19:00;0.64;80.05
69503;SHT31;56704;54.242;12.442;2024-01-15T09:21:26;0.64;80.46
69503;SHT31;56704;54.242;12.442;2024-01-15T09:23:53;0.63;79.14
69503;SHT31;56704;54.242;12.442;2024-01-15T09:26:19;0.56;79.76
69503;SHT31;56704;54.242;12.442;2024-01-15T09:28:46;0.56;79.70
69503;SHT31;56704;54.242;12.442;2024-01-15T09:31:13;0.56;80.43
69503;SHT31;56704;54.242;12.442;2024-01-15T09:33:40;0.51;81.18
69503;SHT31;56704;54.242;12.442;2024-01-15T09:36:07;0.46;80.41
69503;SHT31;56704;54.242;12.442;2024-01-15T09:38:34;0.46;81.16
69503;SHT31;56704;54.242;12.442;2024-01-15T09:41:01;0.44;81.85
69503;SHT31;56704;54.242;12.442;2024-01-15T09:43:28;0.46;80.31
69503;SHT31;56704;54.242;12.442;2024-01-15T09:45:55;0.43;79.43
69503;SHT31;56704;54.242;12.442;2024-01-15T09:48:22;0.41;79.03
69503;SHT31;56704;54.242;12.442;2024-01-15T09:50:50;0.39;78.57
69503;SHT31;56704;54.242;12.442;2024-01-15T09:53:17;0.36;80.48
69503;SHT31;56704;54.242;12.442;2024-01-15T09:55:44;0.34;80.78
69503;SHT31;56704;54.242;12.442;2024-01-15T09:58:10;0.33;81.45
69503;SHT31;56704;54.242;12.442;2024-01-15T10:00:39;0.30;80.66
69503;SHT31;56704;54.242;12.442;2024-01-15T10:03:07;0.31;81.17
69503;SHT31;56704;54.242;12.442;2024-01-15T10:05:35;0.29;79.28
69503;SHT31;56704;54.242;12.442;2024-01-15T10:08:04;0.27;78.11
69503;SHT31;56704;54.242;12.442;2024-01-15T10:10:31;0.27;78.95
69503;SHT31;56704;54.242;12.442;2024-01-15T10:12:58;0.26;79.29
69503;SHT31;56704;54.242;12.442;2024-01-15T10:15:26;0.27;79.29
69503;SHT31;56704;54.242;12.442;2024-01-15T10:17:52;0.26;80.22
69503;SHT31;56704;54.242;12.442;2024-01-15T10:20:20;0.26;80.24
69503;SHT31;56704;54.242;12.442;2024-01-15T10:22:47;0.27;80.34
69503;SHT31;56704;54.242;12.442;2024-01-15T10:25:15;0.24;80.37
69503;SHT31;56704;54.242;12.442;2024-01-15T10:27:59;0.27;81.21
69503;SHT31;56704;54.242;12.442;2024-01-15T10:30:25;0.26;80.23
69503;SHT31;56704;54.242;12.442;2024-01-15T10:32:57;0.23;80.47
69503;SHT31;56704;54.242;12.442;2024-01-15T10:35:27;0.24;80.97
69503;SHT31;56704;54.242;12.442;2024-01-15T10:37:53;0.24;81.84
69503;SHT31;56704;54.242;12.442;2024-01-15T10:40:21;0.27;82.21
69503;SHT31;56704;54.242;12.442;2024-01-15T10:42:48;0.24;81.68
69503;SHT31;56704;54.242;12.442;2024-01-15T10:45:15;0.29;81.09
69503;SHT31;56704;54.242;12.442;2024-01-15T10:47:42;0.30;82.00
69503;SHT31;56704;54.242;12.442;2024-01-15T10:50:09;0.29;80.99
69503;SHT31;56704;54.242;12.442;2024-01-15T10:52:37;0.31;81.42
69503;SHT31;56704;54.242;12.442;2024-01-15T10:55:06;0.29;80.90
69503;SHT31;56704;54.242;12.442;2024-01-15T10:57:35;0.24;81.13
69503;SHT31;56704;54.242;12.442;2024-01-15T11:00:04;0.27;80.92
69503;SHT31;56704;54.242;12.442;2024-01-15T11:02:31;0.30;81.34
69503;SHT31;56704;54.242;12.442;2024-01-15T11:04:58;0.34;80.84
69503;SHT31;56704;54.242;12.442;2024-01-15T11:07:26;0.30;80.30
69503;SHT31;56704;54.242;12.442;2024-01-15T11:09:53;0.37;81.59
69503;SHT31;56704;54.242;12.442;2024-01-15T11:12:19;0.33;81.20
69503;SHT31;56704;54.242;12.442;2024-01-15T11:14:48;0.33;81.02
69503;SHT31;56704;54.242;12.442;2024-01-15T11:17:16;0.31;80.65
69503;SHT31;56704;54.242;12.442;2024-01-15T11:19:43;0.30;79.63
69503;SHT31;56704;54.242;12.442;2024-01-15T11:22:47;0.31;79.64
69503;SHT31;56704;54.242;12.442;2024-01-15T11:25:02;0.27;80.98
69503;SHT31;56704;54.242;12.442;2024-01-15T11:27:39;0.30;80.56
69503;SHT31;56704;54.242;12.442;2024-01-15T11:30:10;0.29;79.91
69503;SHT31;56704;54.242;12.442;2024-01-15T11:32:37;0.31;80.07
69503;SHT31;56704;54.242;12.442;2024-01-15T11:35:07;0.33;80.37
69503;SHT31;56704;54.242;12.442;2024-01-15T11:37:58;0.33;80.54
69503;SHT31;56704;54.242;12.442;2024-01-15T11:40:38;0.36;81.49
69503;SHT31;56704;54.242;12.442;2024-01-15T11:43:07;0.29;82.26
69503;SHT31;56704;54.242;12.442;2024-01-15T11:45:36;0.26;83.33
69503;SHT31;56704;54.242;12.442;2024-01-15T11:48:10;0.27;82.25
69503;SHT31;56704;54.242;12.442;2024-01-15T11:50:39;0.23;81.81
69503;SHT31;56704;54.242;12.442;2024-01-15T11:53:16;0.27;81.92
69503;SHT31;56704;54.242;12.442;2024-01-15T11:55:45;0.27;81.69
69503;SHT31;56704;54.242;12.442;2024-01-15T11:58:14;0.31;82.21
69503;SHT31;56704;54.242;12.442;2024-01-15T12:00:44;0.33;82.90
69503;SHT31;56704;54.242;12.442;2024-01-15T12:03:11;0.26;80.97
69503;SHT31;56704;54.242;12.442;2024-01-15T12:05:38;0.24;80.09
69503;SHT31;56704;54.242;12.442;2024-01-15T12:08:05;0.19;78.30
69503;SHT31;56704;54.242;12.442;2024-01-15T12:10:36;0.23;79.85
69503;SHT31;56704;54.242;12.442;2024-01-15T12:13:05;0.24;80.17
69503;SHT31;56704;54.242;12.442;2024-01-15T12:15:32;0.26;80.46
69503;SHT31;56704;54.242;12.442;2024-01-15T12:18:01;0.26;80.47
69503;SHT31;56704;54.242;12.442;2024-01-15T12:20:29;0.21;79.63
69503;SHT31;56704;54.242;12.442;2024-01-15T12:22:56;0.21;80.57
69503;SHT31;56704;54.242;12.442;2024-01-15T12:25:24;0.17;79.49
69503;SHT31;56704;54.242;12.442;2024-01-15T12:27:52;0.20;80.84
69503;SHT31;56704;54.242;12.442;2024-01-15T12:30:19;0.12;77.70
69503;SHT31;56704;54.242;12.442;2024-01-15T12:32:46;0.16;80.14
69503;SHT31;56704;54.242;12.442;2024-01-15T12:35:15;0.13;79.93
69503;SHT31;56704;54.242;12.442;2024-01-15T12:37:42;0.16;79.06
69503;SHT31;56704;54.242;12.442;2024-01-15T12:40:10;0.19;79.14
69503;SHT31;56704;54.242;12.442;2024-01-15T12:42:37;0.21;79.08
69503;SHT31;56704;54.242;12.442;2024-01-15T12:45:05;0.21;78.88
69503;SHT31;56704;54.242;12.442;2024-01-15T12:47:34;0.26;79.24
69503;SHT31;56704;54.242;12.442;2024-01-15T12:50:01;0.29;78.49
69503;SHT31;56704;54.242;12.442;2024-01-15T12:52:29;0.26;78.42
69503;SHT31;56704;54.242;12.442;2024-01-15T12:54:56;0.34;79.73
69503;SHT31;56704;54.242;12.442;2024-01-15T12:57:22;0.24;78.81
69503;SHT31;56704;54.242;12.442;2024-01-15T12:59:49;0.23;79.05
69503;SHT31;56704;54.242;12.442;2024-01-15T13:02:16;0.14;79.09
69503;SHT31;56704;54.242;12.442;2024-01-15T13:04:43;0.21;80.59
69503;SHT31;56704;54.242;12.442;2024-01-15T13:07:09;0.19;79.10
69503;SHT31;56704;54.242;12.442;2024-01-15T13:09:38;0.23;78.89
69503;SHT31;56704;54.242;12.442;2024-01-15T13:12:05;0.09;77.16
69503;SHT31;56704;54.242;12.442;2024-01-15T13:14:32;0.09;77.29
69503;SHT31;56704;54.242;12.442;2024-01-15T13:16:59;-0.01;77.62
69503;SHT31;56704;54.242;12.442;2024-01-15T13:19:25;-0.07;77.69
69503;SHT31;56704;54.242;12.442;2024-01-15T13:21:52;-0.05;77.25
69503;SHT31;56704;54.242;12.442;2024-01-15T13:24:19;0.03;79.04
69503;SHT31;56704;54.242;12.442;2024-01-15T13:26:47;0.06;78.51
69503;SHT31;56704;54.242;12.442;2024-01-15T13:29:14;0.03;78.24
69503;SHT31;56704;54.242;12.442;2024-01-15T13:31:40;-0.04;77.96
69503;SHT31;56704;54.242;12.442;2024-01-15T13:34:07;-0.04;77.59
69503;SHT31;56704;54.242;12.442;2024-01-15T13:36:34;-0.02;78.39
69503;SHT31;56704;54.242;12.442;2024-01-15T13:39:01;0.00;80.14
69503;SHT31;56704;54.242;12.442;2024-01-15T13:41:28;0.02;80.33
69503;SHT31;56704;54.242;12.442;2024-01-15T13:43:56;0.02;80.70
69503;SHT31;56704;54.242;12.442;2024-01-15T13:46:24;0.02;81.05
69503;SHT31;56704;54.242;12.442;2024-01-15T13:48:52;0.05;81.69
69503;SHT31;56704;54.242;12.442;2024-01-15T13:51:21;-0.04;81.43
69503;SHT31;56704;54.242;12.442;2024-01-15T13:53:48;-0.08;80.72
69503;SHT31;56704;54.242;12.442;2024-01-15T13:56:15;-0.12;79.70
69503;SHT31;56704;54.242;12.442;2024-01-15T13:58:42;-0.12;80.45
69503;SHT31;56704;54.242;12.442;2024-01-15T14:01:11;-0.18;80.24
69503;SHT31;56704;54.242;12.442;2024-01-15T14:03:37;-0.21;80.06
69503;SHT31;56704;54.242;12.442;2024-01-15T14:06:06;-0.22;79.62
69503;SHT31;56704;54.242;12.442;2024-01-15T14:08:36;-0.28;80.29
69503;SHT31;56704;54.242;12.442;2024-01-15T14:11:03;-0.26;80.85
69503;SHT31;56704;54.242;12.442;2024-01-15T14:13:31;-0.32;79.60
69503;SHT31;56704;54.242;12.442;2024-01-15T14:15:57;-0.36;79.40
69503;SHT31;56704;54.242;12.442;2024-01-15T14:18:26;-0.33;79.71
69503;SHT31;56704;54.242;12.442;2024-01-15T14:20:53;-0.36;79.87
69503;SHT31;56704;54.242;12.442;2024-01-15T14:23:19;-0.38;79.99
69503;SHT31;56704;54.242;12.442;2024-01-15T14:25:46;-0.33;81.57
69503;SHT31;56704;54.242;12.442;2024-01-15T14:28:13;-0.38;80.48
69503;SHT31;56704;54.242;12.442;2024-01-15T14:30:39;-0.36;80.51
69503;SHT31;56704;54.242;12.442;2024-01-15T14:33:06;-0.39;80.20
69503;SHT31;56704;54.242;12.442;2024-01-15T14:35:34;-0.35;81.07
69503;SHT31;56704;54.242;12.442;2024-01-15T14:38:01;-0.32;81.20
69503;SHT31;56704;54.242;12.442;2024-01-15T14:40:28;-0.32;81.80
69503;SHT31;56704;54.242;12.442;2024-01-15T14:42:55;-0.36;79.20
69503;SHT31;56704;54.242;12.442;2024-01-15T14:45:21;-0.33;79.55
69503;SHT31;56704;54.242;12.442;2024-01-15T14:47:48;-0.41;78.01
69503;SHT31;56704;54.242;12.442;2024-01-15T14:50:15;-0.45;77.88
69503;SHT31;56704;54.242;12.442;2024-01-15T14:52:43;-0.43;78.68
69503;SHT31;56704;54.242;12.442;2024-01-15T14:55:11;-0.43;79.40
69503;SHT31;56704;54.242;12.442;2024-01-15T14:57:37;-0.45;79.35
69503;SHT31;56704;54.242;12.442;2024-01-15T15:00:05;-0.45;79.63
69503;SHT31;56704;54.242;12.442;2024-01-15T15:02:34;-0.49;79.57
69503;SHT31;56704;54.242;12.442;2024-01-15T15:05:00;-0.48;79.08
69503;SHT31;56704;54.242;12.442;2024-01-15T15:07:27;-0.46;80.61
69503;SHT31;56704;54.242;12.442;2024-01-15T15:09:55;-0.45;81.56
69503;SHT31;56704;54.242;12.442;2024-01-15T15:12:21;-0.46;80.72
69503;SHT31;56704;54.242;12.442;2024-01-15T15:14:48;-0.43;82.09
69503;SHT31;56704;54.242;12.442;2024-01-15T15:17:15;-0.45;81.06
69503;SHT31;56704;54.242;12.442;2024-01-15T15:19:41;-0.48;81.20
69503;SHT31;56704;54.242;12.442;2024-01-15T15:22:08;-0.46;81.52
69503;SHT31;56704;54.242;12.442;2024-01-15T15:24:36;-0.49;81.02
69503;SHT31;56704;54.242;12.442;2024-01-15T15:27:05;-0.52;81.66
69503;SHT31;56704;54.242;12.442;2024-01-15T15:29:32;-0.45;82.25